Weather at Cindy Guntly Memorial Airport

Public forecast

Using degrees Fahrenheit for public forecast. Weather courtesy of forecast.io.

Closest aviation weather report (METAR) to Cindy Guntly Memorial Airport

Closest report is General Mitchell International Airport, 11.4 nm (21.2 km) NE. Retrieved 2021/06/25 02:52 UTC (44 minutes ago):

KMKE 250252Z 17004KT 2SM BR OVC002 20/19 A2994 RMK AO2 SFC VIS 2 1/2 SLP135 T02000189 55001

Closest aviation forecast (TAF) to Cindy Guntly Memorial Airport

Closest forecast is General Mitchell International Airport, 11.4 nm (21.2 km) NE. Retrieved 2021-06-25 00:46 UTC (3 hours ago):

TAF KMKE 242344Z 2500/2606 19012G21KT P6SM OVC009 FM250500 19007KT 6SM -SHRA BR VCTS OVC008CB FM250800 18007KT 4SM SHRA BR VCTS OVC005CB FM251600 28006KT P6SM OVC006 FM251900 34007KT P6SM OVC012 FM260400 15005KT 4SM BR OVC010